Time;durP1;ratioP1;P1;durP2;ratioP2;P2;SDS_P1;SDS_P2;PMS_P1;PMS_P2;Temp;Humidity;BMP_temperature;BMP_pressure;BME280_temperature;BME280_humidity;BME280_pressure;Samples;Min_cycle;Max_cycle;Signal;HPM_P1;HPM_P2
2024/03/02 00:01:36;;;;;;;27.55;17.05;;;6.50;99.90;;;;;;7600227;19;20022;-74
2024/03/02 00:04:09;;;;;;;24.65;15.75;;;6.50;99.90;;;;;;7602452;19;20365;-74
2024/03/02 00:06:41;;;;;;;28.00;17.15;;;6.50;99.90;;;;;;7601768;19;20061;-73
2024/03/02 00:09:14;;;;;;;25.10;15.32;;;6.50;99.90;;;;;;7596603;19;20026;-73
2024/03/02 00:11:47;;;;;;;26.50;15.35;;;6.40;99.90;;;;;;7600569;19;20059;-73
2024/03/02 00:14:19;;;;;;;29.40;16.23;;;6.40;99.90;;;;;;7583689;19;21064;-73
2024/03/02 00:16:53;;;;;;;27.77;16.55;;;6.40;99.90;;;;;;7601737;19;21048;-74
2024/03/02 00:19:25;;;;;;;24.20;16.15;;;6.40;99.90;;;;;;7592386;19;20534;-73
2024/03/02 00:22:01;;;;;;;31.95;17.40;;;6.40;99.90;;;;;;7587067;19;20010;-75
2024/03/02 00:24:35;;;;;;;26.77;15.95;;;6.30;99.90;;;;;;7596754;19;20029;-74
2024/03/02 00:27:09;;;;;;;25.67;15.93;;;6.40;99.90;;;;;;7593780;19;20031;-73
2024/03/02 00:29:45;;;;;;;27.23;15.52;;;6.40;99.90;;;;;;7591261;19;20321;-74
2024/03/02 00:32:17;;;;;;;26.42;16.70;;;6.40;99.90;;;;;;7592740;19;20014;-73
2024/03/02 00:34:49;;;;;;;25.48;15.65;;;6.30;99.90;;;;;;7597399;19;20989;-73
2024/03/02 00:37:22;;;;;;;26.63;15.43;;;6.30;99.90;;;;;;7592701;19;20164;-74
2024/03/02 00:39:54;;;;;;;22.15;14.32;;;6.40;99.90;;;;;;7598954;19;20935;-74
2024/03/02 00:42:26;;;;;;;24.50;14.07;;;6.30;99.90;;;;;;7602153;19;20043;-73
2024/03/02 00:44:59;;;;;;;23.08;14.48;;;6.30;99.90;;;;;;7595593;19;20029;-75
2024/03/02 00:47:31;;;;;;;26.23;15.07;;;6.40;99.90;;;;;;7602502;19;20298;-73
2024/03/02 00:50:04;;;;;;;23.58;14.73;;;6.30;99.90;;;;;;7598001;19;20021;-74
2024/03/02 00:52:50;;;;;;;24.75;15.13;;;6.30;99.90;;;;;;7590351;19;20029;-73
2024/03/02 00:55:23;;;;;;;23.58;15.38;;;6.30;99.90;;;;;;7602679;19;20025;-73
2024/03/02 00:57:55;;;;;;;23.70;15.68;;;6.30;99.90;;;;;;7608120;19;20622;-74
2024/03/02 01:00:27;;;;;;;22.45;14.52;;;6.20;99.90;;;;;;7592924;19;20022;-75
2024/03/02 01:03:00;;;;;;;27.80;15.82;;;6.20;99.90;;;;;;7602248;19;20918;-73
2024/03/02 01:05:32;;;;;;;26.45;15.70;;;6.20;99.90;;;;;;7606000;19;20014;-73
2024/03/02 01:08:05;;;;;;;23.30;14.82;;;6.20;99.90;;;;;;7595267;19;21280;-73
2024/03/02 01:10:37;;;;;;;26.47;15.10;;;6.20;99.90;;;;;;7595216;19;20095;-73
2024/03/02 01:13:10;;;;;;;24.55;15.30;;;6.10;99.90;;;;;;7593035;19;20052;-74
2024/03/02 01:15:42;;;;;;;22.17;14.48;;;6.20;99.90;;;;;;7598583;19;20018;-73
2024/03/02 01:18:14;;;;;;;23.00;14.68;;;6.20;99.90;;;;;;7605787;19;21038;-74
2024/03/02 01:20:47;;;;;;;23.50;14.18;;;6.20;99.90;;;;;;7605267;19;20021;-73
2024/03/02 01:23:19;;;;;;;22.55;13.80;;;6.20;99.90;;;;;;7600952;19;20047;-73
2024/03/02 01:25:52;;;;;;;21.50;14.50;;;6.20;99.90;;;;;;7601394;19;20018;-73
2024/03/02 01:28:24;;;;;;;21.53;14.00;;;6.20;99.90;;;;;;7603492;19;20022;-73
2024/03/02 01:30:57;;;;;;;23.25;14.52;;;6.20;99.90;;;;;;7604476;19;20352;-73
2024/03/02 01:33:29;;;;;;;21.92;14.48;;;6.10;99.90;;;;;;7603288;19;20101;-74
2024/03/02 01:36:02;;;;;;;23.08;14.90;;;6.10;99.90;;;;;;7603126;19;20014;-74
2024/03/02 01:38:34;;;;;;;23.05;13.80;;;6.10;99.90;;;;;;7597566;19;20018;-74
2024/03/02 01:41:07;;;;;;;24.43;15.03;;;6.10;99.90;;;;;;7601480;19;20018;-74
2024/03/02 01:43:40;;;;;;;24.73;15.23;;;6.10;99.90;;;;;;7611901;19;20072;-73
2024/03/02 01:46:13;;;;;;;24.33;15.75;;;6.10;99.90;;;;;;7606777;19;20029;-74
2024/03/02 01:48:45;;;;;;;24.35;14.82;;;6.00;99.90;;;;;;7599873;19;20019;-74
2024/03/02 01:51:17;;;;;;;29.65;16.38;;;6.00;99.90;;;;;;7603889;19;20031;-74
2024/03/02 01:53:49;;;;;;;26.27;15.68;;;5.90;99.90;;;;;;7593408;19;20813;-73
2024/03/02 01:56:22;;;;;;;23.80;14.38;;;5.90;99.90;;;;;;7603746;19;20109;-75
2024/03/02 01:58:54;;;;;;;23.85;14.73;;;5.90;99.90;;;;;;7603314;19;20022;-74
2024/03/02 02:01:27;;;;;;;21.98;14.45;;;5.90;99.90;;;;;;7606579;19;20052;-74
2024/03/02 02:03:59;;;;;;;22.52;13.98;;;6.00;99.90;;;;;;7604088;19;20344;-74
2024/03/02 02:06:32;;;;;;;21.67;13.85;;;6.10;99.90;;;;;;7606661;19;20018;-75
2024/03/02 02:09:04;;;;;;;23.50;14.10;;;6.00;99.90;;;;;;7588120;19;20015;-75
2024/03/02 02:11:36;;;;;;;21.58;12.80;;;6.10;99.90;;;;;;7603644;19;20448;-75
2024/03/02 02:14:08;;;;;;;21.80;13.80;;;6.10;99.90;;;;;;7597226;19;20022;-74
2024/03/02 02:16:40;;;;;;;20.20;13.00;;;6.20;99.90;;;;;;7607808;19;20006;-74
2024/03/02 02:19:13;;;;;;;20.98;12.43;;;6.20;99.90;;;;;;7600408;19;20018;-74
2024/03/02 02:21:45;;;;;;;20.58;12.63;;;6.20;99.90;;;;;;7603649;19;20046;-75
2024/03/02 02:24:17;;;;;;;24.25;14.85;;;6.20;99.90;;;;;;7585156;19;20024;-74
2024/03/02 02:26:49;;;;;;;22.67;13.70;;;6.20;99.90;;;;;;7606964;19;20356;-72
2024/03/02 02:29:22;;;;;;;21.88;13.65;;;6.20;99.90;;;;;;7603498;19;20014;-76
2024/03/02 02:31:54;;;;;;;22.65;13.60;;;6.20;99.90;;;;;;7605803;19;20018;-74
2024/03/02 02:34:26;;;;;;;21.73;13.82;;;6.20;99.90;;;;;;7603869;19;20014;-75
2024/03/02 02:36:59;;;;;;;22.42;13.82;;;6.20;99.90;;;;;;7596834;19;20014;-73
2024/03/02 02:39:31;;;;;;;25.08;14.32;;;6.20;99.90;;;;;;7599977;19;20785;-72
2024/03/02 02:42:04;;;;;;;22.52;13.88;;;6.20;99.90;;;;;;7604257;19;20014;-75
2024/03/02 02:44:36;;;;;;;23.13;14.93;;;6.20;99.90;;;;;;7606538;19;20033;-75
2024/03/02 02:47:08;;;;;;;28.13;16.23;;;6.20;99.90;;;;;;7601892;19;20040;-73
2024/03/02 02:49:41;;;;;;;28.50;16.02;;;6.10;99.90;;;;;;7600172;19;20014;-72
2024/03/02 02:52:13;;;;;;;24.92;15.13;;;6.10;99.90;;;;;;7593759;19;20468;-75
2024/03/02 02:54:45;;;;;;;24.63;15.02;;;6.10;99.90;;;;;;7590385;19;20492;-75
2024/03/02 02:57:17;;;;;;;26.90;16.20;;;6.10;99.90;;;;;;7602453;19;20018;-75
2024/03/02 02:59:50;;;;;;;27.15;17.15;;;6.10;99.90;;;;;;7597525;19;20010;-76
2024/03/02 03:02:22;;;;;;;29.33;17.48;;;6.00;99.90;;;;;;7603936;19;20022;-76
2024/03/02 03:04:57;;;;;;;28.67;16.75;;;6.00;99.90;;;;;;7601736;19;20043;-73
2024/03/02 03:07:29;;;;;;;27.67;17.33;;;6.00;99.90;;;;;;7600366;19;20022;-73
2024/03/02 03:10:03;;;;;;;25.98;15.88;;;6.00;99.90;;;;;;7591749;19;20116;-73
2024/03/02 03:12:35;;;;;;;26.23;16.42;;;6.00;99.90;;;;;;7607648;19;20018;-73
2024/03/02 03:15:09;;;;;;;26.90;17.20;;;6.00;99.90;;;;;;7601431;19;20136;-73
2024/03/02 03:17:41;;;;;;;28.65;16.90;;;6.10;99.90;;;;;;7586655;19;20132;-74
2024/03/02 03:20:15;;;;;;;34.33;19.23;;;6.20;99.90;;;;;;7590527;19;20876;-72
2024/03/02 03:22:47;;;;;;;32.15;17.25;;;6.10;99.90;;;;;;7602432;19;20361;-73
2024/03/02 03:25:20;;;;;;;30.45;18.23;;;6.00;99.90;;;;;;7596609;19;20057;-73
2024/03/02 03:27:52;;;;;;;30.83;19.40;;;6.00;99.90;;;;;;7604575;19;20011;-73
2024/03/02 03:30:25;;;;;;;28.83;17.60;;;6.00;99.90;;;;;;7604909;19;20117;-72
2024/03/02 03:32:57;;;;;;;30.25;18.88;;;5.90;99.90;;;;;;7598597;19;20072;-72
2024/03/02 03:35:30;;;;;;;34.85;20.13;;;5.90;99.90;;;;;;7598432;19;22993;-73
2024/03/02 03:38:02;;;;;;;33.88;19.48;;;5.80;99.90;;;;;;7603755;19;20014;-74
2024/03/02 03:40:34;;;;;;;34.63;19.27;;;5.80;99.90;;;;;;7598614;19;20022;-75
2024/03/02 03:43:06;;;;;;;34.95;19.83;;;5.80;99.90;;;;;;7601025;19;20662;-72
2024/03/02 03:45:39;;;;;;;28.88;18.17;;;5.80;99.90;;;;;;7599557;19;20018;-75
2024/03/02 03:48:12;;;;;;;31.40;18.23;;;5.90;99.90;;;;;;7596020;19;20025;-74
2024/03/02 03:50:44;;;;;;;31.40;18.00;;;6.00;99.90;;;;;;7596772;19;20034;-73
2024/03/02 03:53:16;;;;;;;32.35;19.02;;;6.00;99.90;;;;;;7596140;19;20286;-74
2024/03/02 03:55:49;;;;;;;34.00;18.85;;;5.90;99.90;;;;;;7607858;19;20022;-73
2024/03/02 03:58:21;;;;;;;31.90;18.25;;;5.90;99.90;;;;;;7601959;19;20041;-73
2024/03/02 04:00:54;;;;;;;28.37;17.13;;;5.90;99.90;;;;;;7597143;19;20086;-74
2024/03/02 04:03:26;;;;;;;30.05;16.77;;;5.90;99.90;;;;;;7601579;19;20025;-73
2024/03/02 04:05:59;;;;;;;29.80;17.33;;;6.00;99.90;;;;;;7597043;19;20022;-73
2024/03/02 04:08:31;;;;;;;32.25;18.42;;;6.10;99.90;;;;;;7598908;19;20096;-73
2024/03/02 04:11:04;;;;;;;35.97;20.48;;;6.00;99.90;;;;;;7601890;19;20082;-73
2024/03/02 04:13:36;;;;;;;30.95;19.65;;;6.00;99.90;;;;;;7598422;19;20015;-74
2024/03/02 04:16:09;;;;;;;33.53;19.58;;;5.90;99.90;;;;;;7602530;19;20110;-75
2024/03/02 04:18:41;;;;;;;32.58;19.02;;;5.90;99.90;;;;;;7598242;19;20025;-73
2024/03/02 04:21:13;;;;;;;35.50;19.50;;;5.90;99.90;;;;;;7591819;19;20018;-74
2024/03/02 04:23:46;;;;;;;32.67;18.52;;;6.00;99.90;;;;;;7596875;19;20023;-73
2024/03/02 04:26:22;;;;;;;30.55;17.98;;;6.00;99.90;;;;;;7595364;19;20751;-74
2024/03/02 04:28:54;;;;;;;32.17;18.35;;;6.00;99.90;;;;;;7605946;19;20384;-74
2024/03/02 04:31:26;;;;;;;31.92;19.40;;;6.10;99.90;;;;;;7593570;19;20010;-74
2024/03/02 04:33:58;;;;;;;29.92;18.40;;;6.00;99.90;;;;;;7595640;19;20030;-73
2024/03/02 04:36:30;;;;;;;33.83;18.67;;;6.00;99.90;;;;;;7599232;19;20015;-74
2024/03/02 04:39:03;;;;;;;30.85;17.83;;;6.00;99.90;;;;;;7598541;19;20019;-74
2024/03/02 04:41:35;;;;;;;28.98;17.65;;;6.00;99.90;;;;;;7605665;19;21116;-72
2024/03/02 04:44:07;;;;;;;30.85;18.10;;;6.00;99.90;;;;;;7605817;19;20389;-74
2024/03/02 04:46:40;;;;;;;36.50;20.65;;;6.10;99.90;;;;;;7610736;19;20037;-73
2024/03/02 04:49:12;;;;;;;35.58;19.73;;;6.00;99.90;;;;;;7604041;19;20100;-73
2024/03/02 04:51:45;;;;;;;36.47;20.63;;;5.90;99.90;;;;;;7603964;19;20030;-73
2024/03/02 04:54:17;;;;;;;42.65;23.58;;;5.90;99.90;;;;;;7599347;19;20986;-74
2024/03/02 04:56:50;;;;;;;38.08;21.60;;;5.80;99.90;;;;;;7612697;19;20468;-73
2024/03/02 04:59:22;;;;;;;37.25;21.90;;;5.80;99.90;;;;;;7606460;19;20014;-74
2024/03/02 05:01:54;;;;;;;51.58;25.70;;;5.80;99.90;;;;;;7613890;19;20026;-74
2024/03/02 05:04:27;;;;;;;38.95;22.38;;;5.90;99.90;;;;;;7600335;19;20018;-74
2024/03/02 05:06:59;;;;;;;44.47;24.08;;;5.80;99.90;;;;;;7603781;19;20375;-72
2024/03/02 05:09:31;;;;;;;39.80;20.88;;;5.90;99.90;;;;;;7588692;19;20033;-73
2024/03/02 05:14:55;;;;;;;52.60;27.25;;;6.00;99.90;;;;;;7605418;19;20026;-73
2024/03/02 05:17:28;;;;;;;42.20;22.88;;;6.00;99.90;;;;;;7606093;19;20011;-73
2024/03/02 05:20:01;;;;;;;44.92;23.58;;;6.10;99.90;;;;;;7611695;19;20032;-73
2024/03/02 05:22:33;;;;;;;41.40;22.83;;;6.00;99.90;;;;;;7607717;19;20014;-73
2024/03/02 05:25:07;;;;;;;36.67;21.75;;;6.00;99.90;;;;;;7598161;19;21199;-73
2024/03/02 05:27:39;;;;;;;43.55;22.75;;;6.10;99.90;;;;;;7598166;19;20014;-72
2024/03/02 05:30:12;;;;;;;31.97;20.13;;;6.10;99.90;;;;;;7600359;19;20026;-72
2024/03/02 05:32:44;;;;;;;38.97;22.48;;;6.10;99.90;;;;;;7595455;19;20066;-72
2024/03/02 05:35:16;;;;;;;46.83;25.20;;;6.10;99.90;;;;;;7595098;19;20018;-73
2024/03/02 05:37:48;;;;;;;42.83;22.23;;;6.10;99.90;;;;;;7598813;19;20080;-74
2024/03/02 05:40:31;;;;;;;42.47;23.40;;;6.10;99.90;;;;;;7596060;19;20051;-73
2024/03/02 05:43:04;;;;;;;43.33;23.40;;;6.10;99.90;;;;;;7597442;19;20010;-72
2024/03/02 05:45:36;;;;;;;52.53;26.77;;;6.10;99.90;;;;;;7578141;19;21343;-74
2024/03/02 05:48:09;;;;;;;46.03;24.50;;;6.10;99.90;;;;;;7596869;19;20018;-74
2024/03/02 05:50:41;;;;;;;42.63;23.75;;;6.10;99.90;;;;;;7601104;19;20252;-74
2024/03/02 05:53:15;;;;;;;47.97;26.02;;;6.10;99.90;;;;;;7593524;19;20134;-75
2024/03/02 05:55:53;;;;;;;39.35;22.90;;;6.10;99.90;;;;;;7602796;19;20019;-74
2024/03/02 05:58:43;;;;;;;47.08;25.65;;;6.20;99.90;;;;;;7594495;19;20018;-75
2024/03/02 06:01:15;;;;;;;36.97;22.45;;;6.20;99.90;;;;;;7591570;19;20018;-73
2024/03/02 06:03:47;;;;;;;36.75;21.65;;;6.20;99.90;;;;;;7606715;19;20358;-74
2024/03/02 06:06:20;;;;;;;39.95;21.63;;;6.20;99.90;;;;;;7590560;19;20098;-74
2024/03/02 06:08:53;;;;;;;37.65;23.02;;;6.20;99.90;;;;;;7594332;19;20018;-72
2024/03/02 06:11:25;;;;;;;32.97;19.35;;;6.20;99.90;;;;;;7602569;19;21114;-72
2024/03/02 06:13:58;;;;;;;45.57;23.63;;;6.30;99.90;;;;;;7606242;19;20085;-72
2024/03/02 06:16:30;;;;;;;40.10;23.10;;;6.20;99.90;;;;;;7596985;19;20374;-72
2024/03/02 06:19:02;;;;;;;41.58;23.65;;;6.20;99.90;;;;;;7597595;19;20042;-73
2024/03/02 06:21:35;;;;;;;44.05;23.73;;;6.20;99.90;;;;;;7562057;19;20018;-73
2024/03/02 06:24:07;;;;;;;36.72;21.65;;;6.20;99.90;;;;;;7581343;19;20019;-73
2024/03/02 06:26:40;;;;;;;35.50;21.47;;;6.20;99.90;;;;;;7600795;19;20026;-75
2024/03/02 06:29:12;;;;;;;36.40;22.30;;;6.20;99.90;;;;;;7601132;19;20372;-74
2024/03/02 06:31:44;;;;;;;41.95;24.05;;;6.20;99.90;;;;;;7601053;19;20058;-74
2024/03/02 06:34:17;;;;;;;61.08;27.83;;;6.20;99.90;;;;;;7591340;19;20483;-74
2024/03/02 06:36:49;;;;;;;50.42;25.63;;;6.10;99.90;;;;;;7600183;19;20022;-73
2024/03/02 06:39:21;;;;;;;39.10;23.15;;;6.00;99.90;;;;;;7588062;19;20028;-73
2024/03/02 06:41:54;;;;;;;43.85;24.50;;;6.00;99.90;;;;;;7607059;19;20022;-73
2024/03/02 06:44:26;;;;;;;40.45;21.50;;;6.10;99.90;;;;;;7600771;19;20086;-74
2024/03/02 06:46:59;;;;;;;39.73;23.13;;;6.20;99.90;;;;;;7610020;19;20515;-72
2024/03/02 06:49:31;;;;;;;42.20;22.67;;;6.20;99.90;;;;;;7602918;19;20725;-73
2024/03/02 06:52:03;;;;;;;43.70;24.30;;;6.30;99.90;;;;;;7606032;19;20059;-73
2024/03/02 06:54:36;;;;;;;41.17;23.67;;;6.30;99.90;;;;;;7565537;19;20504;-74
2024/03/02 06:57:09;;;;;;;38.28;22.83;;;6.40;99.90;;;;;;7594045;19;20287;-73
2024/03/02 06:59:42;;;;;;;39.75;24.70;;;6.40;99.90;;;;;;7569722;19;20558;-74
2024/03/02 07:02:14;;;;;;;39.25;23.35;;;6.40;99.90;;;;;;7581832;19;20915;-73
2024/03/02 07:04:47;;;;;;;41.35;23.67;;;6.40;99.90;;;;;;7578512;19;20461;-73
2024/03/02 07:07:19;;;;;;;43.83;24.60;;;6.40;99.90;;;;;;7568625;19;20626;-74
2024/03/02 07:09:52;;;;;;;35.83;21.97;;;6.40;99.90;;;;;;7576933;19;20018;-74
2024/03/02 07:12:24;;;;;;;43.65;25.08;;;6.40;99.90;;;;;;7600952;19;20042;-72
2024/03/02 07:15:18;;;;;;;44.03;25.60;;;6.50;99.90;;;;;;7597456;19;20416;-73
2024/03/02 07:17:49;;;;;;;46.55;24.30;;;6.50;99.90;;;;;;7586505;19;20011;-74
2024/03/02 07:20:22;;;;;;;38.78;23.02;;;6.60;99.90;;;;;;7581838;19;20036;-73
2024/03/02 07:22:54;;;;;;;40.30;24.90;;;6.50;99.90;;;;;;7591288;19;20039;-73
2024/03/02 07:25:26;;;;;;;43.53;24.48;;;6.60;99.90;;;;;;7583967;19;21488;-74
2024/03/02 07:28:02;;;;;;;43.97;25.13;;;6.60;99.90;;;;;;7586035;19;20006;-73
2024/03/02 07:30:35;;;;;;;49.53;26.20;;;6.70;99.90;;;;;;7581914;19;20094;-74
2024/03/02 07:33:07;;;;;;;43.80;25.50;;;6.60;99.90;;;;;;7568081;19;20014;-75
2024/03/02 07:35:40;;;;;;;46.42;26.38;;;6.70;99.90;;;;;;7576974;19;20058;-73
2024/03/02 07:38:12;;;;;;;45.45;25.67;;;6.70;99.90;;;;;;7563106;19;20702;-76
2024/03/02 07:40:44;;;;;;;49.30;26.73;;;6.70;99.90;;;;;;7564876;19;20015;-73
2024/03/02 07:43:19;;;;;;;52.10;28.38;;;6.70;99.90;;;;;;7581416;19;20033;-73
2024/03/02 07:45:51;;;;;;;50.28;26.08;;;6.80;99.90;;;;;;7593646;19;20010;-73
2024/03/02 07:48:25;;;;;;;50.42;27.52;;;6.70;99.90;;;;;;7588160;19;20018;-73
2024/03/02 07:50:57;;;;;;;49.85;27.98;;;6.70;99.90;;;;;;7597737;19;20042;-73
2024/03/02 07:53:30;;;;;;;48.80;27.02;;;6.70;99.90;;;;;;7576903;19;20611;-73
2024/03/02 07:56:02;;;;;;;54.00;27.37;;;6.70;99.90;;;;;;7599228;19;20014;-73
2024/03/02 07:58:35;;;;;;;52.50;27.07;;;6.70;99.90;;;;;;7572365;19;20010;-73
2024/03/02 08:01:07;;;;;;;50.75;26.88;;;6.60;99.90;;;;;;7583849;19;20622;-73
2024/03/02 08:03:40;;;;;;;51.95;27.92;;;6.70;99.90;;;;;;7573511;19;20820;-74
2024/03/02 08:06:14;;;;;;;54.15;26.80;;;6.70;99.90;;;;;;7593619;19;20014;-74
2024/03/02 08:08:47;;;;;;;53.15;27.98;;;6.70;99.90;;;;;;7577582;19;20029;-74
2024/03/02 08:11:20;;;;;;;55.60;28.10;;;6.80;99.90;;;;;;7579478;19;20013;-75
2024/03/02 08:13:54;;;;;;;57.90;29.33;;;6.80;99.90;;;;;;7561628;19;20127;-72
2024/03/02 08:16:27;;;;;;;58.35;28.27;;;6.80;99.90;;;;;;7581632;19;20052;-72
2024/03/02 08:18:59;;;;;;;56.75;30.27;;;6.80;99.90;;;;;;7569072;19;20097;-73
2024/03/02 08:21:34;;;;;;;50.42;29.83;;;6.90;99.90;;;;;;7582371;19;20132;-72
2024/03/02 08:24:07;;;;;;;48.95;27.38;;;6.90;99.90;;;;;;7564670;19;20045;-72
2024/03/02 08:26:39;;;;;;;53.30;28.90;;;6.90;99.90;;;;;;7584621;19;20093;-73
2024/03/02 08:29:13;;;;;;;50.45;27.00;;;6.90;99.90;;;;;;7586117;19;20133;-72
2024/03/02 08:31:45;;;;;;;51.42;27.95;;;7.00;99.90;;;;;;7567454;19;20015;-73
2024/03/02 08:34:17;;;;;;;48.03;26.98;;;7.10;99.90;;;;;;7579582;19;20006;-73
2024/03/02 08:36:50;;;;;;;45.47;24.17;;;7.20;99.90;;;;;;7558326;19;20018;-73
2024/03/02 08:39:23;;;;;;;40.75;22.48;;;7.20;99.90;;;;;;7549669;19;20030;-72
2024/03/02 08:41:55;;;;;;;41.17;22.05;;;7.30;99.90;;;;;;7554925;19;20111;-72
2024/03/02 08:44:27;;;;;;;37.53;21.88;;;7.30;99.90;;;;;;7579648;19;20049;-72
2024/03/02 08:47:00;;;;;;;38.40;22.15;;;7.40;99.90;;;;;;7584324;19;20002;-72
2024/03/02 08:49:33;;;;;;;37.50;22.00;;;7.60;99.90;;;;;;7563243;19;20614;-72
2024/03/02 08:52:05;;;;;;;34.75;19.95;;;7.70;99.90;;;;;;7575997;19;20010;-72
2024/03/02 08:54:38;;;;;;;37.55;21.08;;;7.80;99.90;;;;;;7563651;19;20057;-73
2024/03/02 08:57:10;;;;;;;32.70;19.30;;;7.90;99.90;;;;;;7565515;19;21012;-73
2024/03/02 08:59:43;;;;;;;25.73;14.52;;;7.90;99.90;;;;;;7553540;19;20052;-73
2024/03/02 09:02:16;;;;;;;28.10;17.35;;;8.10;99.90;;;;;;7551810;19;20025;-73
2024/03/02 09:04:49;;;;;;;31.13;18.85;;;8.20;99.90;;;;;;7541127;19;20010;-76
2024/03/02 09:07:22;;;;;;;34.88;19.30;;;8.30;99.90;;;;;;7593790;19;20010;-74
2024/03/02 09:09:54;;;;;;;31.25;18.95;;;8.40;99.90;;;;;;7564821;19;20452;-71
2024/03/02 09:12:27;;;;;;;26.05;16.42;;;8.50;99.90;;;;;;7589066;19;20630;-71
2024/03/02 09:15:01;;;;;;;24.90;14.98;;;8.60;99.90;;;;;;7569429;19;21132;-72
2024/03/02 09:17:34;;;;;;;20.70;12.57;;;8.70;99.90;;;;;;7562961;19;20018;-72
2024/03/02 09:20:07;;;;;;;23.85;13.63;;;8.80;99.90;;;;;;7566821;19;20011;-72
2024/03/02 09:22:39;;;;;;;23.98;13.95;;;8.90;99.90;;;;;;7585501;19;20014;-72
2024/03/02 09:25:12;;;;;;;24.70;15.05;;;8.90;99.90;;;;;;7593602;19;21083;-72
2024/03/02 09:27:45;;;;;;;32.67;18.83;;;8.90;99.90;;;;;;7599554;19;20050;-73
2024/03/02 09:30:17;;;;;;;35.22;18.30;;;8.90;99.90;;;;;;7589988;19;20423;-73
2024/03/02 09:32:50;;;;;;;36.83;19.07;;;9.00;99.90;;;;;;7594714;19;20371;-73
2024/03/02 09:35:22;;;;;;;35.33;19.95;;;9.00;99.90;;;;;;7603308;19;20029;-73
2024/03/02 09:37:55;;;;;;;32.28;17.90;;;9.10;99.90;;;;;;7605198;19;20650;-72
2024/03/02 09:40:28;;;;;;;29.20;17.10;;;9.20;99.90;;;;;;7613060;19;20018;-73
2024/03/02 09:43:01;;;;;;;34.92;18.40;;;9.30;99.90;;;;;;7598001;19;20011;-72
2024/03/02 09:45:34;;;;;;;27.70;15.93;;;9.30;99.90;;;;;;7601451;19;20022;-71
2024/03/02 09:48:07;;;;;;;28.47;14.40;;;9.50;99.90;;;;;;7596235;19;20030;-73
2024/03/02 09:50:39;;;;;;;27.58;15.48;;;9.50;99.90;;;;;;7585509;19;20488;-74
2024/03/02 09:53:12;;;;;;;29.05;15.80;;;9.60;99.90;;;;;;7537354;19;22922;-74
2024/03/02 09:55:48;;;;;;;26.55;16.10;;;9.70;99.90;;;;;;7571299;19;20050;-73
2024/03/02 09:58:20;;;;;;;29.60;16.92;;;9.60;99.90;;;;;;7598603;19;20484;-74
2024/03/02 10:00:52;;;;;;;28.98;15.48;;;9.70;99.90;;;;;;7565667;19;20674;-73
2024/03/02 10:03:26;;;;;;;22.70;11.77;;;9.80;99.90;;;;;;7577101;19;20022;-72
2024/03/02 10:06:25;;;;;;;24.15;12.00;;;9.80;99.90;;;;;;7590160;19;20899;-73
2024/03/02 10:08:58;;;;;;;19.48;10.93;;;9.80;99.90;;;;;;7573289;19;20697;-73
2024/03/02 10:11:33;;;;;;;19.80;10.68;;;9.90;99.90;;;;;;7587360;19;20643;-73
2024/03/02 10:14:13;;;;;;;17.25;10.05;;;10.00;99.90;;;;;;7588802;19;20014;-70
2024/03/02 10:16:46;;;;;;;17.35;10.05;;;10.00;99.90;;;;;;7596503;19;20007;-72
2024/03/02 10:19:20;;;;;;;24.10;11.38;;;10.10;99.90;;;;;;7595858;19;20460;-72
2024/03/02 10:21:54;;;;;;;24.48;12.45;;;10.20;99.90;;;;;;7593814;19;20302;-72
2024/03/02 10:24:27;;;;;;;19.52;10.38;;;10.30;99.90;;;;;;7562826;19;20021;-72
2024/03/02 10:26:59;;;;;;;22.60;12.30;;;10.40;99.90;;;;;;7567004;19;20011;-72
2024/03/02 10:29:32;;;;;;;24.63;13.45;;;10.50;99.90;;;;;;7554000;19;20037;-73
2024/03/02 10:32:06;;;;;;;23.30;12.85;;;10.60;99.90;;;;;;7568313;19;20010;-75
2024/03/02 10:34:44;;;;;;;24.27;13.05;;;10.60;99.90;;;;;;7553903;19;20887;-76
2024/03/02 10:37:19;;;;;;;26.85;13.38;;;10.70;99.90;;;;;;7580671;19;20022;-72
2024/03/02 10:39:52;;;;;;;21.85;12.55;;;10.80;99.90;;;;;;7597573;19;20019;-72
2024/03/02 10:42:25;;;;;;;23.27;13.13;;;10.90;99.90;;;;;;7568216;19;20623;-73
2024/03/02 10:44:58;;;;;;;25.90;14.73;;;11.00;99.90;;;;;;7579321;19;20022;-73
2024/03/02 10:47:33;;;;;;;32.22;16.85;;;11.10;99.90;;;;;;7562630;19;20015;-73
2024/03/02 10:50:08;;;;;;;36.08;17.25;;;11.10;99.90;;;;;;7575944;19;20025;-73
2024/03/02 10:52:40;;;;;;;33.83;17.77;;;11.20;99.90;;;;;;7589595;19;20034;-73
2024/03/02 10:55:12;;;;;;;33.25;17.27;;;11.30;99.90;;;;;;7591583;19;20014;-75
2024/03/02 10:57:54;;;;;;;29.67;16.13;;;11.40;99.90;;;;;;7575574;19;20499;-73
2024/03/02 11:00:33;;;;;;;25.45;15.10;;;11.60;99.90;;;;;;7568403;19;20015;-75
2024/03/02 11:03:10;;;;;;;29.70;15.70;;;11.60;99.90;;;;;;7540653;19;20022;-76
2024/03/02 11:05:48;;;;;;;26.17;14.95;;;11.60;99.90;;;;;;7562062;19;20028;-72
2024/03/02 11:08:23;;;;;;;29.17;14.50;;;11.60;99.90;;;;;;7557761;19;20142;-75
2024/03/02 11:11:21;;;;;;;24.27;13.77;;;11.70;99.90;;;;;;7569107;19;20018;-73
2024/03/02 11:13:59;;;;;;;22.65;12.98;;;11.90;99.90;;;;;;7569976;19;20098;-73
2024/03/02 11:16:36;;;;;;;26.10;12.75;;;12.00;99.90;;;;;;7572545;19;20018;-73
2024/03/02 11:19:14;;;;;;;22.13;11.50;;;12.30;99.90;;;;;;7568756;19;20021;-76
2024/03/02 11:21:49;;;;;;;18.20;10.55;;;12.40;99.90;;;;;;7584406;19;20015;-74
2024/03/02 11:24:23;;;;;;;19.67;11.23;;;12.30;99.90;;;;;;7585948;19;20099;-72
2024/03/02 11:26:56;;;;;;;18.67;10.07;;;12.40;99.90;;;;;;7574035;19;20010;-72
2024/03/02 11:29:35;;;;;;;;;;;12.40;99.90;;;;;;7562541;19;20014;-72
2024/03/02 11:32:17;;;;;;;20.52;10.32;;;12.40;99.90;;;;;;7570919;19;20019;-74
2024/03/02 11:34:50;;;;;;;18.83;9.90;;;12.40;99.90;;;;;;7589258;19;20018;-73
2024/03/02 11:37:25;;;;;;;16.50;9.65;;;12.50;99.90;;;;;;7587840;19;20093;-74
2024/03/02 11:39:57;;;;;;;20.83;9.95;;;12.60;99.90;;;;;;7572854;19;21651;-74
2024/03/02 11:42:29;;;;;;;17.77;9.82;;;12.80;99.90;;;;;;7564718;19;20114;-73
2024/03/02 11:45:02;;;;;;;15.30;8.57;;;13.30;99.90;;;;;;7563726;19;20025;-73
2024/03/02 11:47:36;;;;;;;15.97;8.23;;;15.10;99.90;;;;;;7581201;19;20025;-75
2024/03/02 11:50:10;;;;;;;12.70;7.82;;;16.70;98.30;;;;;;7571827;19;20014;-73
2024/03/02 11:52:43;;;;;;;15.82;9.07;;;17.60;94.30;;;;;;7592470;19;20472;-73
2024/03/02 11:55:18;;;;;;;13.43;8.82;;;18.40;90.80;;;;;;7583819;19;20027;-72
2024/03/02 11:57:52;;;;;;;14.80;8.88;;;19.20;89.10;;;;;;7587848;19;20731;-73
2024/03/02 12:00:25;;;;;;;24.42;8.55;;;19.90;84.10;;;;;;7592593;19;20009;-73
2024/03/02 12:03:02;;;;;;;16.75;7.90;;;20.40;76.90;;;;;;7578657;19;20060;-73
2024/03/02 12:05:35;;;;;;;11.73;7.18;;;20.30;75.00;;;;;;7577513;19;20377;-72
2024/03/02 12:08:08;;;;;;;12.90;7.72;;;20.60;75.80;;;;;;7580637;19;20534;-73
2024/03/02 12:10:40;;;;;;;12.43;7.63;;;20.20;73.60;;;;;;7568748;19;20023;-73
2024/03/02 12:13:13;;;;;;;14.75;8.77;;;19.40;74.90;;;;;;7574108;19;20036;-72
2024/03/02 12:15:45;;;;;;;15.55;9.88;;;18.30;79.40;;;;;;7593165;19;20010;-72
2024/03/02 12:18:18;;;;;;;15.13;10.07;;;17.80;81.70;;;;;;7580115;19;20779;-72
2024/03/02 12:20:52;;;;;;;14.63;8.95;;;17.90;81.40;;;;;;7583004;19;20037;-73
2024/03/02 12:23:25;;;;;;;12.70;8.15;;;18.70;79.80;;;;;;7592182;19;20010;-72
2024/03/02 12:25:58;;;;;;;13.38;8.75;;;19.60;75.00;;;;;;7593676;19;20019;-73
2024/03/02 12:28:33;;;;;;;15.40;8.23;;;20.20;72.80;;;;;;7580736;19;20049;-73
2024/03/02 12:31:08;;;;;;;13.85;8.75;;;19.70;73.80;;;;;;7569278;19;20060;-73
2024/03/02 12:33:41;;;;;;;11.45;6.82;;;18.30;78.30;;;;;;7519002;19;20026;-73
2024/03/02 12:36:14;;;;;;;14.65;7.95;;;17.70;79.90;;;;;;7516194;19;20039;-73
2024/03/02 12:38:46;;;;;;;15.10;8.53;;;17.10;82.00;;;;;;7551035;19;20014;-72
2024/03/02 12:41:19;;;;;;;15.32;8.63;;;16.40;84.60;;;;;;7580681;19;21273;-73
2024/03/02 12:43:52;;;;;;;12.43;7.60;;;15.80;86.40;;;;;;7577664;19;20086;-73
2024/03/02 12:46:25;;;;;;;10.95;7.30;;;15.50;87.40;;;;;;7570840;19;20089;-74
2024/03/02 12:48:59;;;;;;;13.25;7.70;;;15.30;88.50;;;;;;7577165;19;20081;-71
2024/03/02 12:51:32;;;;;;;11.13;6.80;;;15.30;88.70;;;;;;7604623;19;20026;-72
2024/03/02 12:54:05;;;;;;;12.15;7.65;;;15.40;88.00;;;;;;7593144;19;20028;-71
2024/03/02 12:56:38;;;;;;;12.27;6.38;;;15.30;88.10;;;;;;7577260;19;20082;-73
2024/03/02 12:59:17;;;;;;;13.07;7.03;;;15.40;87.20;;;;;;7579908;19;21553;-72
2024/03/02 13:01:51;;;;;;;13.43;8.43;;;15.30;87.80;;;;;;7578064;19;20011;-74
2024/03/02 13:04:26;;;;;;;10.63;6.88;;;15.60;87.50;;;;;;7593630;19;20011;-73
2024/03/02 13:06:59;;;;;;;10.02;6.00;;;15.70;86.70;;;;;;7595307;19;20756;-71
2024/03/02 13:09:33;;;;;;;13.45;6.40;;;15.70;86.20;;;;;;7599332;19;20025;-73